Etusivu
METAR-TAF:

METAR-TAF

Lentoasemat :

Montevideo-Chippewa County Airport

Montevideo, Minnesota, Yhdysvallat

Leveyspiiri: 44-58N, Pituuspiiri: 095-43W, korkeus merenpinnasta: 315 m

Tämänhetkinen sää

Tämä raportti tehtiin 30 minuuttia sitten, kello 20.15 UTC
Tuuli 5 kn lännestä/luoteesta
Lämpötila -6°C
Kosteus 68%
Ilmanpaine 1026 hPa
Näkyvyys: 8.0 km
Pilvistä 3700 ft:n korkeudessa
heikkoa lumisadetta

METAR: KMVE 262015Z AUTO 30005KT 5SM -SN OVC037 M06/M11 A3029 RMK AO2

Aika: 14:45 (20:45 UTC)


TAF: puuttuu

Säähavainnot ja -ennusteet yli 4000 lentoasemalta (METAR- ja TAF-raportit).

Käytössä olevat sääasemat on merkitty karttaan keltaisilla ja punaisilla pisteillä.

Aseta hiiri pisteen päälle nähdäksesi sääaseman nimen.

Klikkaa sitten nähdäksesi säähavainnot ja -ennusteet.

Kartan vaihtaminen: klikkaa mustalla rastilla varustettuja vihreitä pisteitä, niin voit zoomata sisään; viivalla varustettua vihreää pistettä, niin voit zoomata ulos tai vihreitä nuolia, niin pääset viereisille kartoille.


METAR-TAF: